Terminal Aerodrome Forecast
Issued by NWS Jacksonville, FL

Home | Current Version | Previous Version | Text Only | Print | Product List | Glossary On
Versions: 1 2 3 4 5 6 7 8 9 10 11 12 13 14 15 16 17 18 19 20 21 22 23 24 25 26 27 28 29 30
000
FTUS42 KJAX 171150
TAFGNV
TAF
KGNV 171150Z 1712/1812 00000KT 2SM BR BKN002
      TEMPO 1712/1713 1/2SM FG
     FM171330 18006KT P6SM SCT015 SCT250
     FM171900 21007KT P6SM SCT040 BKN250
     FM180100 18003KT P6SM SCT050 BKN250
     FM180400 00000KT 3SM BR SCT002=

USA.gov is the U.S. government's official web portal to all federal, state and local government web resources and services.